sensor_id;sensor_type;location;lat;lon;timestamp;P1;durP1;ratioP1;P2;durP2;ratioP2
15192;SDS011;7697;51.630;7.484;2023-12-20T00:01:33;9.70;;;8.45;;
15192;SDS011;7697;51.630;7.484;2023-12-20T00:06:37;13.00;;;10.40;;
15192;SDS011;7697;51.630;7.484;2023-12-20T00:11:39;9.95;;;8.95;;
15192;SDS011;7697;51.630;7.484;2023-12-20T00:16:42;12.50;;;9.63;;
15192;SDS011;7697;51.630;7.484;2023-12-20T00:21:45;10.60;;;8.40;;
15192;SDS011;7697;51.630;7.484;2023-12-20T00:26:47;12.05;;;8.60;;
15192;SDS011;7697;51.630;7.484;2023-12-20T00:31:48;13.70;;;10.52;;
15192;SDS011;7697;51.630;7.484;2023-12-20T00:36:51;10.98;;;9.70;;
15192;SDS011;7697;51.630;7.484;2023-12-20T00:41:55;14.05;;;11.35;;
15192;SDS011;7697;51.630;7.484;2023-12-20T00:46:57;15.77;;;12.38;;
15192;SDS011;7697;51.630;7.484;2023-12-20T00:52:00;14.68;;;11.35;;
15192;SDS011;7697;51.630;7.484;2023-12-20T00:57:02;13.90;;;10.88;;
15192;SDS011;7697;51.630;7.484;2023-12-20T01:02:03;14.73;;;10.93;;
15192;SDS011;7697;51.630;7.484;2023-12-20T01:07:07;13.68;;;8.90;;
15192;SDS011;7697;51.630;7.484;2023-12-20T01:12:09;11.95;;;8.07;;
15192;SDS011;7697;51.630;7.484;2023-12-20T01:17:11;9.77;;;6.57;;
15192;SDS011;7697;51.630;7.484;2023-12-20T01:22:14;9.75;;;5.95;;
15192;SDS011;7697;51.630;7.484;2023-12-20T01:27:16;9.02;;;4.82;;
15192;SDS011;7697;51.630;7.484;2023-12-20T01:32:17;6.75;;;4.35;;
15192;SDS011;7697;51.630;7.484;2023-12-20T01:37:21;9.65;;;4.40;;
15192;SDS011;7697;51.630;7.484;2023-12-20T01:42:24;6.68;;;4.10;;
15192;SDS011;7697;51.630;7.484;2023-12-20T01:47:25;9.52;;;4.90;;
15192;SDS011;7697;51.630;7.484;2023-12-20T01:52:29;7.90;;;4.47;;
15192;SDS011;7697;51.630;7.484;2023-12-20T01:57:31;8.93;;;4.78;;
15192;SDS011;7697;51.630;7.484;2023-12-20T02:02:33;8.85;;;4.05;;
15192;SDS011;7697;51.630;7.484;2023-12-20T02:07:37;8.38;;;4.50;;
15192;SDS011;7697;51.630;7.484;2023-12-20T02:12:38;9.30;;;5.00;;
15192;SDS011;7697;51.630;7.484;2023-12-20T02:17:41;11.70;;;4.60;;
15192;SDS011;7697;51.630;7.484;2023-12-20T02:22:45;9.80;;;4.80;;
15192;SDS011;7697;51.630;7.484;2023-12-20T02:27:47;7.85;;;4.30;;
15192;SDS011;7697;51.630;7.484;2023-12-20T02:32:50;11.03;;;4.70;;
15192;SDS011;7697;51.630;7.484;2023-12-20T02:37:55;11.65;;;5.38;;
15192;SDS011;7697;51.630;7.484;2023-12-20T02:42:56;10.02;;;4.70;;
15192;SDS011;7697;51.630;7.484;2023-12-20T02:47:58;7.22;;;4.55;;
15192;SDS011;7697;51.630;7.484;2023-12-20T02:53:01;7.05;;;4.40;;
15192;SDS011;7697;51.630;7.484;2023-12-20T02:58:03;9.98;;;4.40;;
15192;SDS011;7697;51.630;7.484;2023-12-20T03:03:05;13.52;;;4.93;;
15192;SDS011;7697;51.630;7.484;2023-12-20T03:08:08;13.32;;;4.75;;
15192;SDS011;7697;51.630;7.484;2023-12-20T03:13:10;13.93;;;5.03;;
15192;SDS011;7697;51.630;7.484;2023-12-20T03:18:12;15.43;;;5.20;;
15192;SDS011;7697;51.630;7.484;2023-12-20T03:23:15;10.93;;;4.68;;
15192;SDS011;7697;51.630;7.484;2023-12-20T03:28:17;14.70;;;4.10;;
15192;SDS011;7697;51.630;7.484;2023-12-20T03:33:19;10.47;;;5.30;;
15192;SDS011;7697;51.630;7.484;2023-12-20T03:38:22;8.60;;;4.80;;
15192;SDS011;7697;51.630;7.484;2023-12-20T03:43:24;7.25;;;4.50;;
15192;SDS011;7697;51.630;7.484;2023-12-20T03:48:26;9.93;;;4.82;;
15192;SDS011;7697;51.630;7.484;2023-12-20T03:53:29;9.40;;;4.57;;
15192;SDS011;7697;51.630;7.484;2023-12-20T03:58:31;13.38;;;5.00;;
15192;SDS011;7697;51.630;7.484;2023-12-20T04:03:33;14.57;;;5.78;;
15192;SDS011;7697;51.630;7.484;2023-12-20T04:08:36;13.18;;;5.57;;
15192;SDS011;7697;51.630;7.484;2023-12-20T04:13:38;11.48;;;5.57;;
15192;SDS011;7697;51.630;7.484;2023-12-20T04:18:39;12.75;;;6.28;;
15192;SDS011;7697;51.630;7.484;2023-12-20T04:23:42;11.57;;;5.43;;
15192;SDS011;7697;51.630;7.484;2023-12-20T04:28:44;7.32;;;4.35;;
15192;SDS011;7697;51.630;7.484;2023-12-20T04:33:45;13.32;;;4.60;;
15192;SDS011;7697;51.630;7.484;2023-12-20T04:38:48;13.02;;;5.05;;
15192;SDS011;7697;51.630;7.484;2023-12-20T04:43:50;10.68;;;4.72;;
15192;SDS011;7697;51.630;7.484;2023-12-20T04:48:52;14.40;;;5.20;;
15192;SDS011;7697;51.630;7.484;2023-12-20T04:53:55;11.80;;;5.38;;
15192;SDS011;7697;51.630;7.484;2023-12-20T04:58:57;9.73;;;5.88;;
15192;SDS011;7697;51.630;7.484;2023-12-20T05:03:59;14.30;;;5.93;;
15192;SDS011;7697;51.630;7.484;2023-12-20T05:09:02;13.80;;;6.10;;
15192;SDS011;7697;51.630;7.484;2023-12-20T05:14:04;19.43;;;7.37;;
15192;SDS011;7697;51.630;7.484;2023-12-20T05:19:05;11.05;;;6.32;;
15192;SDS011;7697;51.630;7.484;2023-12-20T05:24:09;14.68;;;6.20;;
15192;SDS011;7697;51.630;7.484;2023-12-20T05:29:10;13.23;;;6.60;;
15192;SDS011;7697;51.630;7.484;2023-12-20T05:34:12;11.88;;;5.88;;
15192;SDS011;7697;51.630;7.484;2023-12-20T05:39:15;15.83;;;7.50;;
15192;SDS011;7697;51.630;7.484;2023-12-20T05:44:17;12.80;;;6.13;;
15192;SDS011;7697;51.630;7.484;2023-12-20T05:49:19;13.67;;;6.27;;
15192;SDS011;7697;51.630;7.484;2023-12-20T05:54:23;11.10;;;6.75;;
15192;SDS011;7697;51.630;7.484;2023-12-20T05:59:24;15.40;;;7.40;;
15192;SDS011;7697;51.630;7.484;2023-12-20T06:04:26;14.00;;;7.68;;
15192;SDS011;7697;51.630;7.484;2023-12-20T06:09:29;20.30;;;9.25;;
15192;SDS011;7697;51.630;7.484;2023-12-20T06:14:31;14.43;;;8.23;;
15192;SDS011;7697;51.630;7.484;2023-12-20T06:19:32;18.17;;;7.60;;
15192;SDS011;7697;51.630;7.484;2023-12-20T06:24:36;13.35;;;7.63;;
15192;SDS011;7697;51.630;7.484;2023-12-20T06:29:37;21.13;;;8.13;;
15192;SDS011;7697;51.630;7.484;2023-12-20T06:34:41;23.80;;;8.07;;
15192;SDS011;7697;51.630;7.484;2023-12-20T06:39:45;17.05;;;8.30;;
15192;SDS011;7697;51.630;7.484;2023-12-20T06:44:47;16.83;;;7.65;;
15192;SDS011;7697;51.630;7.484;2023-12-20T06:49:49;13.57;;;6.50;;
15192;SDS011;7697;51.630;7.484;2023-12-20T06:54:52;14.17;;;7.70;;
15192;SDS011;7697;51.630;7.484;2023-12-20T06:59:54;14.67;;;7.43;;
15192;SDS011;7697;51.630;7.484;2023-12-20T07:04:56;11.35;;;6.22;;
15192;SDS011;7697;51.630;7.484;2023-12-20T07:09:59;14.52;;;7.70;;
15192;SDS011;7697;51.630;7.484;2023-12-20T07:15:00;15.48;;;8.50;;
15192;SDS011;7697;51.630;7.484;2023-12-20T07:20:02;14.90;;;7.28;;
15192;SDS011;7697;51.630;7.484;2023-12-20T07:25:08;21.33;;;8.47;;
15192;SDS011;7697;51.630;7.484;2023-12-20T07:30:11;17.08;;;8.10;;
15192;SDS011;7697;51.630;7.484;2023-12-20T07:35:13;12.40;;;7.07;;
15192;SDS011;7697;51.630;7.484;2023-12-20T07:40:16;20.23;;;8.02;;
15192;SDS011;7697;51.630;7.484;2023-12-20T07:45:18;14.67;;;7.63;;
15192;SDS011;7697;51.630;7.484;2023-12-20T07:50:19;16.58;;;7.43;;
15192;SDS011;7697;51.630;7.484;2023-12-20T07:55:23;12.52;;;7.13;;
15192;SDS011;7697;51.630;7.484;2023-12-20T08:00:25;17.97;;;7.23;;
15192;SDS011;7697;51.630;7.484;2023-12-20T08:05:26;18.27;;;7.55;;
15192;SDS011;7697;51.630;7.484;2023-12-20T08:10:30;18.83;;;7.80;;
15192;SDS011;7697;51.630;7.484;2023-12-20T08:15:31;17.00;;;6.97;;
15192;SDS011;7697;51.630;7.484;2023-12-20T08:20:33;17.02;;;6.53;;
15192;SDS011;7697;51.630;7.484;2023-12-20T08:25:37;17.80;;;7.43;;
15192;SDS011;7697;51.630;7.484;2023-12-20T08:30:38;13.90;;;7.10;;
15192;SDS011;7697;51.630;7.484;2023-12-20T08:35:40;17.35;;;6.68;;
15192;SDS011;7697;51.630;7.484;2023-12-20T08:40:43;20.23;;;7.22;;
15192;SDS011;7697;51.630;7.484;2023-12-20T08:45:45;12.82;;;6.20;;
15192;SDS011;7697;51.630;7.484;2023-12-20T08:50:47;19.80;;;7.40;;
15192;SDS011;7697;51.630;7.484;2023-12-20T08:55:53;14.52;;;5.63;;
15192;SDS011;7697;51.630;7.484;2023-12-20T09:00:54;13.35;;;6.30;;
15192;SDS011;7697;51.630;7.484;2023-12-20T09:05:57;15.20;;;6.07;;
15192;SDS011;7697;51.630;7.484;2023-12-20T09:11:00;16.60;;;6.10;;
15192;SDS011;7697;51.630;7.484;2023-12-20T09:16:02;12.25;;;5.63;;
15192;SDS011;7697;51.630;7.484;2023-12-20T09:21:04;15.68;;;5.95;;
15192;SDS011;7697;51.630;7.484;2023-12-20T09:26:07;13.23;;;6.30;;
15192;SDS011;7697;51.630;7.484;2023-12-20T09:31:09;15.98;;;7.28;;
15192;SDS011;7697;51.630;7.484;2023-12-20T09:36:11;10.38;;;5.38;;
15192;SDS011;7697;51.630;7.484;2023-12-20T09:41:14;13.30;;;5.82;;
15192;SDS011;7697;51.630;7.484;2023-12-20T09:46:16;14.65;;;5.78;;
15192;SDS011;7697;51.630;7.484;2023-12-20T09:51:23;20.65;;;6.13;;
15192;SDS011;7697;51.630;7.484;2023-12-20T09:56:27;9.45;;;4.85;;
15192;SDS011;7697;51.630;7.484;2023-12-20T10:01:29;18.70;;;6.35;;
15192;SDS011;7697;51.630;7.484;2023-12-20T10:06:32;10.55;;;5.40;;
15192;SDS011;7697;51.630;7.484;2023-12-20T10:11:36;14.52;;;4.93;;
15192;SDS011;7697;51.630;7.484;2023-12-20T10:16:38;10.27;;;4.80;;
15192;SDS011;7697;51.630;7.484;2023-12-20T10:21:41;11.27;;;4.68;;
15192;SDS011;7697;51.630;7.484;2023-12-20T10:26:44;16.02;;;5.15;;
15192;SDS011;7697;51.630;7.484;2023-12-20T10:31:46;14.07;;;5.00;;
15192;SDS011;7697;51.630;7.484;2023-12-20T10:36:48;14.38;;;4.43;;
15192;SDS011;7697;51.630;7.484;2023-12-20T10:41:51;11.93;;;4.93;;
15192;SDS011;7697;51.630;7.484;2023-12-20T10:46:53;7.85;;;4.47;;
15192;SDS011;7697;51.630;7.484;2023-12-20T10:51:58;12.13;;;4.90;;
15192;SDS011;7697;51.630;7.484;2023-12-20T10:57:05;9.27;;;4.70;;
15192;SDS011;7697;51.630;7.484;2023-12-20T11:02:07;15.15;;;5.65;;
15192;SDS011;7697;51.630;7.484;2023-12-20T11:07:16;15.98;;;5.53;;
15192;SDS011;7697;51.630;7.484;2023-12-20T11:12:24;17.08;;;5.70;;
15192;SDS011;7697;51.630;7.484;2023-12-20T11:17:31;16.35;;;6.18;;
15192;SDS011;7697;51.630;7.484;2023-12-20T11:22:33;12.07;;;4.95;;
15192;SDS011;7697;51.630;7.484;2023-12-20T11:27:37;13.68;;;5.30;;
15192;SDS011;7697;51.630;7.484;2023-12-20T11:32:42;15.75;;;5.45;;
15192;SDS011;7697;51.630;7.484;2023-12-20T11:37:44;11.40;;;4.40;;
15192;SDS011;7697;51.630;7.484;2023-12-20T11:42:49;12.50;;;4.53;;
15192;SDS011;7697;51.630;7.484;2023-12-20T11:47:52;15.45;;;4.88;;
15192;SDS011;7697;51.630;7.484;2023-12-20T11:52:54;11.07;;;4.00;;
15192;SDS011;7697;51.630;7.484;2023-12-20T11:57:58;10.57;;;3.75;;
15192;SDS011;7697;51.630;7.484;2023-12-20T12:02:59;11.20;;;4.38;;
15192;SDS011;7697;51.630;7.484;2023-12-20T12:08:03;11.20;;;3.35;;
15192;SDS011;7697;51.630;7.484;2023-12-20T12:13:09;13.90;;;4.68;;
15192;SDS011;7697;51.630;7.484;2023-12-20T12:18:15;10.90;;;4.90;;
15192;SDS011;7697;51.630;7.484;2023-12-20T12:23:22;8.57;;;5.28;;
15192;SDS011;7697;51.630;7.484;2023-12-20T12:28:27;13.55;;;5.45;;
15192;SDS011;7697;51.630;7.484;2023-12-20T12:33:29;16.90;;;6.60;;
15192;SDS011;7697;51.630;7.484;2023-12-20T12:38:31;14.55;;;5.90;;
15192;SDS011;7697;51.630;7.484;2023-12-20T12:43:34;12.57;;;6.20;;
15192;SDS011;7697;51.630;7.484;2023-12-20T12:48:36;16.98;;;6.45;;
15192;SDS011;7697;51.630;7.484;2023-12-20T12:53:38;10.50;;;6.03;;
15192;SDS011;7697;51.630;7.484;2023-12-20T12:58:41;9.05;;;5.82;;
15192;SDS011;7697;51.630;7.484;2023-12-20T13:03:43;16.05;;;7.80;;
15192;SDS011;7697;51.630;7.484;2023-12-20T13:08:45;10.25;;;6.28;;
15192;SDS011;7697;51.630;7.484;2023-12-20T13:13:48;16.02;;;8.00;;
15192;SDS011;7697;51.630;7.484;2023-12-20T13:18:51;15.45;;;7.07;;
15192;SDS011;7697;51.630;7.484;2023-12-20T13:23:53;18.73;;;7.95;;
15192;SDS011;7697;51.630;7.484;2023-12-20T13:28:56;17.02;;;7.00;;
15192;SDS011;7697;51.630;7.484;2023-12-20T13:33:58;16.38;;;7.15;;
15192;SDS011;7697;51.630;7.484;2023-12-20T13:39:00;15.50;;;6.72;;
15192;SDS011;7697;51.630;7.484;2023-12-20T13:44:04;14.45;;;6.47;;
15192;SDS011;7697;51.630;7.484;2023-12-20T13:49:06;11.68;;;6.68;;
15192;SDS011;7697;51.630;7.484;2023-12-20T13:54:08;13.48;;;6.97;;
15192;SDS011;7697;51.630;7.484;2023-12-20T13:59:12;10.20;;;6.88;;
15192;SDS011;7697;51.630;7.484;2023-12-20T14:04:15;11.75;;;6.47;;
15192;SDS011;7697;51.630;7.484;2023-12-20T14:09:16;14.77;;;7.03;;
15192;SDS011;7697;51.630;7.484;2023-12-20T14:14:20;15.50;;;7.63;;
15192;SDS011;7697;51.630;7.484;2023-12-20T14:19:21;15.88;;;7.47;;
15192;SDS011;7697;51.630;7.484;2023-12-20T14:24:23;13.40;;;6.57;;
15192;SDS011;7697;51.630;7.484;2023-12-20T14:29:26;14.63;;;7.78;;
15192;SDS011;7697;51.630;7.484;2023-12-20T14:34:28;12.85;;;8.05;;
15192;SDS011;7697;51.630;7.484;2023-12-20T14:39:30;11.23;;;8.02;;
15192;SDS011;7697;51.630;7.484;2023-12-20T14:44:33;16.25;;;9.30;;
15192;SDS011;7697;51.630;7.484;2023-12-20T14:49:35;22.30;;;10.73;;
15192;SDS011;7697;51.630;7.484;2023-12-20T14:54:37;13.90;;;9.65;;
15192;SDS011;7697;51.630;7.484;2023-12-20T14:59:40;14.63;;;9.90;;
15192;SDS011;7697;51.630;7.484;2023-12-20T15:04:43;15.07;;;9.57;;
15192;SDS011;7697;51.630;7.484;2023-12-20T15:09:45;15.43;;;8.52;;
15192;SDS011;7697;51.630;7.484;2023-12-20T15:14:49;13.77;;;8.02;;
15192;SDS011;7697;51.630;7.484;2023-12-20T15:19:50;15.35;;;8.10;;
15192;SDS011;7697;51.630;7.484;2023-12-20T15:24:52;12.63;;;8.90;;
15192;SDS011;7697;51.630;7.484;2023-12-20T15:29:56;11.80;;;8.48;;
15192;SDS011;7697;51.630;7.484;2023-12-20T15:34:58;13.10;;;8.50;;
15192;SDS011;7697;51.630;7.484;2023-12-20T15:40:00;17.90;;;9.55;;
15192;SDS011;7697;51.630;7.484;2023-12-20T15:45:03;13.57;;;8.65;;
15192;SDS011;7697;51.630;7.484;2023-12-20T15:50:06;15.77;;;8.95;;
15192;SDS011;7697;51.630;7.484;2023-12-20T15:55:08;17.27;;;10.10;;
15192;SDS011;7697;51.630;7.484;2023-12-20T16:00:12;15.20;;;9.45;;
15192;SDS011;7697;51.630;7.484;2023-12-20T16:05:14;15.18;;;8.70;;
15192;SDS011;7697;51.630;7.484;2023-12-20T16:10:16;16.30;;;8.57;;
15192;SDS011;7697;51.630;7.484;2023-12-20T16:15:19;16.05;;;8.43;;
15192;SDS011;7697;51.630;7.484;2023-12-20T16:20:21;16.30;;;7.97;;
15192;SDS011;7697;51.630;7.484;2023-12-20T16:25:23;13.52;;;8.20;;
15192;SDS011;7697;51.630;7.484;2023-12-20T16:30:26;14.05;;;7.72;;
15192;SDS011;7697;51.630;7.484;2023-12-20T16:35:28;11.27;;;7.70;;
15192;SDS011;7697;51.630;7.484;2023-12-20T16:40:30;16.85;;;7.63;;
15192;SDS011;7697;51.630;7.484;2023-12-20T16:45:33;14.00;;;8.13;;
15192;SDS011;7697;51.630;7.484;2023-12-20T16:50:34;16.67;;;8.27;;
15192;SDS011;7697;51.630;7.484;2023-12-20T16:55:36;12.82;;;8.18;;
15192;SDS011;7697;51.630;7.484;2023-12-20T17:00:39;12.95;;;8.73;;
15192;SDS011;7697;51.630;7.484;2023-12-20T17:05:41;23.52;;;10.18;;
15192;SDS011;7697;51.630;7.484;2023-12-20T17:10:43;13.10;;;8.10;;
15192;SDS011;7697;51.630;7.484;2023-12-20T17:15:46;19.77;;;11.38;;
15192;SDS011;7697;51.630;7.484;2023-12-20T17:20:48;17.27;;;10.23;;
15192;SDS011;7697;51.630;7.484;2023-12-20T17:25:50;15.55;;;10.40;;
15192;SDS011;7697;51.630;7.484;2023-12-20T17:30:53;16.75;;;9.50;;
15192;SDS011;7697;51.630;7.484;2023-12-20T17:35:55;14.02;;;8.82;;
15192;SDS011;7697;51.630;7.484;2023-12-20T17:40:56;19.30;;;10.45;;
15192;SDS011;7697;51.630;7.484;2023-12-20T17:46:00;18.90;;;11.40;;
15192;SDS011;7697;51.630;7.484;2023-12-20T17:51:01;21.48;;;13.93;;
15192;SDS011;7697;51.630;7.484;2023-12-20T17:56:04;17.95;;;11.63;;
15192;SDS011;7697;51.630;7.484;2023-12-20T18:01:07;16.73;;;10.48;;
15192;SDS011;7697;51.630;7.484;2023-12-20T18:06:09;18.02;;;11.77;;
15192;SDS011;7697;51.630;7.484;2023-12-20T18:11:11;18.67;;;11.18;;
15192;SDS011;7697;51.630;7.484;2023-12-20T18:16:14;18.37;;;10.10;;
15192;SDS011;7697;51.630;7.484;2023-12-20T18:21:17;16.98;;;11.10;;
15192;SDS011;7697;51.630;7.484;2023-12-20T18:26:19;14.30;;;9.35;;
15192;SDS011;7697;51.630;7.484;2023-12-20T18:31:22;16.02;;;10.20;;
15192;SDS011;7697;51.630;7.484;2023-12-20T18:36:24;23.77;;;14.30;;
15192;SDS011;7697;51.630;7.484;2023-12-20T18:41:26;15.00;;;10.15;;
15192;SDS011;7697;51.630;7.484;2023-12-20T18:46:29;20.17;;;11.85;;
15192;SDS011;7697;51.630;7.484;2023-12-20T18:51:31;18.73;;;10.90;;
15192;SDS011;7697;51.630;7.484;2023-12-20T18:56:32;18.27;;;11.48;;
15192;SDS011;7697;51.630;7.484;2023-12-20T19:01:39;17.67;;;10.18;;
15192;SDS011;7697;51.630;7.484;2023-12-20T19:06:41;18.83;;;10.88;;
15192;SDS011;7697;51.630;7.484;2023-12-20T19:11:43;21.20;;;12.02;;
15192;SDS011;7697;51.630;7.484;2023-12-20T19:16:46;17.00;;;11.00;;
15192;SDS011;7697;51.630;7.484;2023-12-20T19:21:47;18.27;;;12.40;;
15192;SDS011;7697;51.630;7.484;2023-12-20T19:26:49;14.63;;;9.90;;
15192;SDS011;7697;51.630;7.484;2023-12-20T19:31:52;15.63;;;8.98;;
15192;SDS011;7697;51.630;7.484;2023-12-20T19:36:54;17.52;;;10.30;;
15192;SDS011;7697;51.630;7.484;2023-12-20T19:41:56;15.07;;;10.18;;
15192;SDS011;7697;51.630;7.484;2023-12-20T19:46:59;16.10;;;8.80;;
15192;SDS011;7697;51.630;7.484;2023-12-20T19:52:00;21.13;;;11.48;;
15192;SDS011;7697;51.630;7.484;2023-12-20T19:57:03;21.55;;;11.20;;
15192;SDS011;7697;51.630;7.484;2023-12-20T20:02:08;17.35;;;9.75;;
15192;SDS011;7697;51.630;7.484;2023-12-20T20:07:10;19.40;;;9.95;;
15192;SDS011;7697;51.630;7.484;2023-12-20T20:12:14;13.50;;;9.30;;
15192;SDS011;7697;51.630;7.484;2023-12-20T20:17:17;15.45;;;10.15;;
15192;SDS011;7697;51.630;7.484;2023-12-20T20:22:19;20.63;;;11.18;;
15192;SDS011;7697;51.630;7.484;2023-12-20T20:27:21;19.02;;;11.95;;
15192;SDS011;7697;51.630;7.484;2023-12-20T20:32:24;17.10;;;10.20;;
15192;SDS011;7697;51.630;7.484;2023-12-20T20:37:30;14.35;;;9.98;;
15192;SDS011;7697;51.630;7.484;2023-12-20T20:42:31;13.60;;;9.60;;
15192;SDS011;7697;51.630;7.484;2023-12-20T20:47:34;13.70;;;9.13;;
15192;SDS011;7697;51.630;7.484;2023-12-20T20:52:36;16.02;;;8.95;;
15192;SDS011;7697;51.630;7.484;2023-12-20T20:57:38;14.90;;;9.02;;
15192;SDS011;7697;51.630;7.484;2023-12-20T21:02:41;12.35;;;7.40;;
15192;SDS011;7697;51.630;7.484;2023-12-20T21:07:43;18.88;;;10.48;;
15192;SDS011;7697;51.630;7.484;2023-12-20T21:12:45;11.38;;;8.10;;
15192;SDS011;7697;51.630;7.484;2023-12-20T21:17:48;12.43;;;8.27;;
15192;SDS011;7697;51.630;7.484;2023-12-20T21:22:50;7.53;;;6.57;;
15192;SDS011;7697;51.630;7.484;2023-12-20T21:27:52;12.05;;;7.70;;
15192;SDS011;7697;51.630;7.484;2023-12-20T21:32:55;8.20;;;6.95;;
15192;SDS011;7697;51.630;7.484;2023-12-20T21:37:56;10.20;;;8.68;;
15192;SDS011;7697;51.630;7.484;2023-12-20T21:42:58;11.77;;;8.50;;
15192;SDS011;7697;51.630;7.484;2023-12-20T21:48:02;16.27;;;10.85;;
15192;SDS011;7697;51.630;7.484;2023-12-20T21:53:04;14.85;;;10.02;;
15192;SDS011;7697;51.630;7.484;2023-12-20T21:58:10;17.40;;;11.63;;
15192;SDS011;7697;51.630;7.484;2023-12-20T22:03:13;10.63;;;8.60;;
15192;SDS011;7697;51.630;7.484;2023-12-20T22:08:15;12.32;;;9.30;;
15192;SDS011;7697;51.630;7.484;2023-12-20T22:13:16;14.15;;;10.07;;
15192;SDS011;7697;51.630;7.484;2023-12-20T22:18:20;19.50;;;12.13;;
15192;SDS011;7697;51.630;7.484;2023-12-20T22:23:22;13.38;;;10.73;;
15192;SDS011;7697;51.630;7.484;2023-12-20T22:28:24;9.75;;;7.55;;
15192;SDS011;7697;51.630;7.484;2023-12-20T22:33:27;8.63;;;7.07;;
15192;SDS011;7697;51.630;7.484;2023-12-20T22:38:28;9.80;;;7.55;;
15192;SDS011;7697;51.630;7.484;2023-12-20T22:43:30;11.15;;;8.10;;
15192;SDS011;7697;51.630;7.484;2023-12-20T22:48:34;7.93;;;6.60;;
15192;SDS011;7697;51.630;7.484;2023-12-20T22:53:35;8.20;;;7.03;;
15192;SDS011;7697;51.630;7.484;2023-12-20T22:58:37;8.00;;;7.10;;
15192;SDS011;7697;51.630;7.484;2023-12-20T23:03:40;8.13;;;7.00;;
15192;SDS011;7697;51.630;7.484;2023-12-20T23:08:42;7.95;;;7.20;;
15192;SDS011;7697;51.630;7.484;2023-12-20T23:13:44;9.27;;;7.93;;
15192;SDS011;7697;51.630;7.484;2023-12-20T23:18:47;9.15;;;7.32;;
15192;SDS011;7697;51.630;7.484;2023-12-20T23:23:48;7.93;;;7.13;;
15192;SDS011;7697;51.630;7.484;2023-12-20T23:28:50;8.98;;;7.55;;
15192;SDS011;7697;51.630;7.484;2023-12-20T23:33:53;8.82;;;7.65;;
15192;SDS011;7697;51.630;7.484;2023-12-20T23:38:55;7.97;;;7.18;;
15192;SDS011;7697;51.630;7.484;2023-12-20T23:43:57;9.50;;;7.88;;
15192;SDS011;7697;51.630;7.484;2023-12-20T23:49:00;8.55;;;7.47;;
15192;SDS011;7697;51.630;7.484;2023-12-20T23:54:02;11.48;;;8.73;;
15192;SDS011;7697;51.630;7.484;2023-12-20T23:59:04;8.20;;;6.85;;
